LOS ANGELES INTL

KLAX (LAX)
Los Angeles, California
Towered

Vatsim Metar:
KLAX 291412Z 33003KT 1 1/2SM BCFG BR SCT000 OVC004 18/17 A2997 RMK AO2 VIS 1V2 FG SCT000 T01780167

No ATC Online

Traffic

Inbound:
Ident
Type
Name
ETA
Phase
CAL5138
H/B744/L
Chi-cheng Liu RCTP
Taxiing In
DAL2020
H/B772/C
Stan Beach KCLT
14:20 Z
Descent
LAN602
H/B789/L
Paulo S� SBRJ
14:52 Z
Cruse
LAN9570
B789
Arthur Hetem SBGR
14:51 Z
Cruse
AAL2880
H/A320
JUNHWAN HEO KLAX
15:30 Z
Cruse
RSU029
A320/L
Javier Linares SLLP
17:43 Z
Cruse
ANA6
H/B77W/L
Hossam Mohammed HEKG
19:44 Z
Cruse
DAL6
B77L/H-SDE1E2E3FGHIJ2J3J4J5M1RWXY/LB1D1
Nic CYOW
20:16 Z
Cruse
LAN600
B77W
Christian Iturrieta SCEL
23:54 Z
Cruse
QFA93
B78X/H-SDE1E2E3FGHIJ2J3J4J5M1RWXY/LB1D1
David Cherrie YSSY
23:15 Z
Cruse

Outbound:
Ident
Type
Name
Destination
Phase